Time;durP1;ratioP1;P1;durP2;ratioP2;P2;SDS_P1;SDS_P2;PMS_P1;PMS_P2;Temp;Humidity;BMP_temperature;BMP_pressure;BME280_temperature;BME280_humidity;BME280_pressure;Samples;Min_cycle;Max_cycle;Signal;HPM_P1;HPM_P2
2022/09/24 00:01:37;;;;;;;7.55;5.97;;;;;;;;;;5076083;28;20475;-89
2022/09/24 00:04:06;;;;;;;11.15;6.53;;;;;;;;;;5075505;28;20056;-89
2022/09/24 00:06:35;;;;;;;9.85;6.80;;;;;;;;;;5057914;28;20045;-89
2022/09/24 00:09:03;;;;;;;14.48;6.53;;;;;;;;;;5075718;28;20051;-89
2022/09/24 00:11:30;;;;;;;14.35;6.55;;;;;;;;;;5075430;28;20166;-89
2022/09/24 00:13:58;;;;;;;7.72;6.05;;;;;;;;;;5058088;28;20052;-89
2022/09/24 00:16:26;;;;;;;10.82;6.50;;;;;;;;;;5057623;28;20049;-89
2022/09/24 00:18:54;;;;;;;8.05;6.18;;;;;;;;;;5058161;28;20094;-89
2022/09/24 00:21:22;;;;;;;7.95;5.75;;;;;;;;;;5057842;28;20063;-89
2022/09/24 00:23:51;;;;;;;6.57;5.88;;;;;;;;;;5057873;28;20049;-89
2022/09/24 00:29:05;;;;;;;6.50;5.90;;;;;;;;;;5075041;28;20049;-89
2022/09/24 00:31:32;;;;;;;7.07;5.70;;;;;;;;;;5057943;28;20060;-89
2022/09/24 00:34:00;;;;;;;12.48;6.18;;;;;;;;;;5057949;28;20128;-89
2022/09/24 00:36:27;;;;;;;6.18;5.47;;;;;;;;;;5057498;28;20053;-89
2022/09/24 00:38:56;;;;;;;7.53;5.60;;;;;;;;;;5075144;28;20048;-89
2022/09/24 00:41:24;;;;;;;6.65;5.90;;;;;;;;;;5075025;28;20048;-89
2022/09/24 00:43:51;;;;;;;5.65;5.15;;;;;;;;;;5075067;28;20048;-89
2022/09/24 00:46:27;;;;;;;8.25;5.60;;;;;;;;;;5075012;28;20053;-89
2022/09/24 00:49:14;;;;;;;9.32;6.35;;;;;;;;;;5075124;28;20094;-89
2022/09/24 00:51:43;;;;;;;7.13;6.13;;;;;;;;;;5074921;28;20080;-89
2022/09/24 00:54:17;;;;;;;6.15;5.47;;;;;;;;;;5057218;28;20476;-89
2022/09/24 00:56:44;;;;;;;7.47;6.72;;;;;;;;;;5074700;28;20630;-89
2022/09/24 00:59:15;;;;;;;6.65;5.88;;;;;;;;;;5057141;28;20080;-88
2022/09/24 01:01:43;;;;;;;8.25;6.05;;;;;;;;;;5057039;28;20053;-88
2022/09/24 01:04:11;;;;;;;11.60;6.40;;;;;;;;;;5057008;28;20045;-89
2022/09/24 01:06:38;;;;;;;9.45;6.05;;;;;;;;;;5056816;28;20404;-89
2022/09/24 01:09:05;;;;;;;11.35;7.22;;;;;;;;;;5074329;28;20068;-89
2022/09/24 01:11:41;;;;;;;7.35;6.25;;;;;;;;;;5056796;28;20472;-89
2022/09/24 01:14:14;;;;;;;7.82;6.47;;;;;;;;;;5056683;28;20044;-89
2022/09/24 01:17:00;;;;;;;8.23;6.22;;;;;;;;;;5056632;28;20049;-88
2022/09/24 01:19:45;;;;;;;7.47;6.18;;;;;;;;;;5072990;28;20049;-89
2022/09/24 01:22:13;;;;;;;8.70;6.68;;;;;;;;;;5056505;28;20045;-88
2022/09/24 01:25:00;;;;;;;9.50;6.82;;;;;;;;;;5073760;28;20072;-88
2022/09/24 01:27:30;;;;;;;7.80;6.43;;;;;;;;;;5056779;28;20127;-89
2022/09/24 01:30:05;;;;;;;7.10;6.40;;;;;;;;;;5056586;28;20053;-89
2022/09/24 01:32:38;;;;;;;11.38;6.80;;;;;;;;;;5056502;28;20048;-89
2022/09/24 01:35:12;;;;;;;10.23;6.82;;;;;;;;;;5074056;28;20051;-89
2022/09/24 01:37:39;;;;;;;;;;;;;;;;;;5074353;28;20139;-89
2022/09/24 01:40:07;;;;;;;7.50;6.78;;;;;;;;;;5073561;28;19928;-89
2022/09/24 01:42:36;;;;;;;8.35;7.03;;;;;;;;;;5055915;28;20477;-89
2022/09/24 01:45:04;;;;;;;7.93;6.53;;;;;;;;;;5056017;28;20052;-89
2022/09/24 01:47:38;;;;;;;8.85;6.70;;;;;;;;;;5056217;28;20048;-89
2022/09/24 01:50:09;;;;;;;8.00;6.95;;;;;;;;;;5056186;28;20053;-89
2022/09/24 01:53:00;;;;;;;10.18;6.85;;;;;;;;;;5056336;28;20162;-89
2022/09/24 01:55:33;;;;;;;8.95;6.80;;;;;;;;;;5043480;28;20511;-89
2022/09/24 01:58:03;;;;;;;7.97;7.18;;;;;;;;;;5056081;28;20052;-89
2022/09/24 02:00:31;;;;;;;7.90;7.10;;;;;;;;;;5073736;28;20060;-89
2022/09/24 02:03:07;;;;;;;11.55;8.48;;;;;;;;;;5073584;28;20054;-88
2022/09/24 02:05:38;;;;;;;11.55;7.25;;;;;;;;;;5073254;28;20048;-88
2022/09/24 02:08:10;;;;;;;15.35;7.72;;;;;;;;;;5073632;28;20059;-88
2022/09/24 02:10:41;;;;;;;9.50;7.63;;;;;;;;;;5055916;28;20049;-89
2022/09/24 02:13:12;;;;;;;7.97;7.18;;;;;;;;;;5073828;28;20049;-89
2022/09/24 02:15:41;;;;;;;8.98;8.07;;;;;;;;;;5055528;28;20052;-89
2022/09/24 02:18:10;;;;;;;7.75;6.97;;;;;;;;;;5073465;28;20055;-89
2022/09/24 02:20:39;;;;;;;10.02;6.50;;;;;;;;;;5055728;28;20048;-88
2022/09/24 02:23:07;;;;;;;8.30;6.45;;;;;;;;;;5055607;28;20056;-89
2022/09/24 02:25:38;;;;;;;11.60;7.03;;;;;;;;;;5055662;28;20420;-89
2022/09/24 02:28:05;;;;;;;7.03;6.30;;;;;;;;;;5073268;28;20049;-88
2022/09/24 02:30:36;;;;;;;8.38;6.85;;;;;;;;;;5073214;28;20059;-89
2022/09/24 02:34:19;;;;;;;9.13;6.43;;;;;;;;;;5055857;28;20059;-89
2022/09/24 02:35:52;;;;;;;10.88;7.25;;;;;;;;;;5073226;28;20045;-88
2022/09/24 02:38:22;;;;;;;7.85;6.95;;;;;;;;;;5056014;28;20503;-89
2022/09/24 02:40:50;;;;;;;6.90;6.13;;;;;;;;;;5055399;28;20051;-89
2022/09/24 02:43:17;;;;;;;9.30;5.97;;;;;;;;;;5073077;28;20052;-89
2022/09/24 02:45:44;;;;;;;13.73;6.88;;;;;;;;;;5055389;28;20051;-89
2022/09/24 02:48:11;;;;;;;9.93;6.45;;;;;;;;;;5055726;28;20048;-89
2022/09/24 02:50:38;;;;;;;6.78;6.10;;;;;;;;;;5055609;28;20072;-88
2022/09/24 02:53:05;;;;;;;6.45;5.85;;;;;;;;;;5058159;28;20045;-89
2022/09/24 02:55:32;;;;;;;6.72;6.22;;;;;;;;;;5059091;28;20537;-89
2022/09/24 02:57:59;;;;;;;6.50;5.90;;;;;;;;;;5076751;28;20060;-89
2022/09/24 03:00:27;;;;;;;7.35;6.68;;;;;;;;;;5059250;28;20135;-88
2022/09/24 03:02:54;;;;;;;7.05;6.40;;;;;;;;;;5059300;28;20076;-89
2022/09/24 03:05:24;;;;;;;7.43;5.80;;;;;;;;;;5076861;28;20052;-88
2022/09/24 03:07:51;;;;;;;7.65;6.28;;;;;;;;;;5058994;28;20049;-88
2022/09/24 03:10:19;;;;;;;7.13;5.78;;;;;;;;;;5058901;28;20051;-88
2022/09/24 03:12:46;;;;;;;8.23;6.75;;;;;;;;;;5058946;28;20048;-88
2022/09/24 03:15:13;;;;;;;10.43;6.28;;;;;;;;;;5059085;28;20045;-88
2022/09/24 03:17:40;;;;;;;9.55;6.10;;;;;;;;;;5059008;28;20059;-88
2022/09/24 03:20:07;;;;;;;6.63;5.85;;;;;;;;;;5076469;28;20040;-89
2022/09/24 03:22:34;;;;;;;8.13;6.00;;;;;;;;;;5058488;28;20056;-87
2022/09/24 03:25:02;;;;;;;11.98;6.45;;;;;;;;;;5058848;28;20054;-88
2022/09/24 03:27:29;;;;;;;6.82;6.07;;;;;;;;;;5058668;28;20048;-88
2022/09/24 03:32:42;;;;;;;10.65;6.18;;;;;;;;;;5076614;28;20055;-89
2022/09/24 03:35:10;;;;;;;6.55;5.95;;;;;;;;;;5076116;28;20049;-89
2022/09/24 03:37:37;;;;;;;6.10;5.50;;;;;;;;;;5058282;28;20063;-88
2022/09/24 03:40:06;;;;;;;8.52;6.57;;;;;;;;;;5058858;28;20122;-88
2022/09/24 03:42:33;;;;;;;10.35;6.47;;;;;;;;;;5058502;28;20044;-88
2022/09/24 03:45:01;;;;;;;11.30;6.57;;;;;;;;;;5076421;28;20593;-89
2022/09/24 03:47:29;;;;;;;8.75;6.32;;;;;;;;;;5058632;28;20428;-88
2022/09/24 03:49:57;;;;;;;9.95;6.50;;;;;;;;;;5075989;28;20054;-88
2022/09/24 03:52:25;;;;;;;8.07;6.60;;;;;;;;;;5058682;28;20052;-89
2022/09/24 03:54:52;;;;;;;7.97;7.05;;;;;;;;;;5076251;28;20052;-89
2022/09/24 03:57:19;;;;;;;8.02;6.40;;;;;;;;;;5058444;28;20059;-88
2022/09/24 03:59:46;;;;;;;7.45;6.75;;;;;;;;;;5058180;28;20049;-88
2022/09/24 04:02:13;;;;;;;8.68;6.68;;;;;;;;;;5058512;28;20135;-89
2022/09/24 04:04:40;;;;;;;8.32;6.13;;;;;;;;;;5057345;28;20048;-89
2022/09/24 04:07:08;;;;;;;9.43;6.85;;;;;;;;;;5058415;28;20080;-88
2022/09/24 04:09:35;;;;;;;7.97;5.70;;;;;;;;;;5075722;28;20495;-89
2022/09/24 04:12:02;;;;;;;7.55;6.20;;;;;;;;;;5058120;28;20041;-88
2022/09/24 04:14:29;;;;;;;6.53;5.93;;;;;;;;;;5057919;28;20108;-88
2022/09/24 04:16:57;;;;;;;10.80;7.05;;;;;;;;;;5057855;28;20049;-88
2022/09/24 04:19:25;;;;;;;18.63;10.93;;;;;;;;;;5058054;28;20050;-88
2022/09/24 04:21:52;;;;;;;20.20;13.00;;;;;;;;;;5057925;28;20056;-88
2022/09/24 04:24:20;;;;;;;19.90;9.93;;;;;;;;;;5057234;28;20053;-88
2022/09/24 04:26:47;;;;;;;9.70;7.93;;;;;;;;;;5057754;28;20476;-88
2022/09/24 04:29:14;;;;;;;11.70;7.90;;;;;;;;;;5057463;28;20048;-88
2022/09/24 04:31:41;;;;;;;14.13;9.10;;;;;;;;;;5075053;28;20052;-89
2022/09/24 04:34:09;;;;;;;8.32;7.15;;;;;;;;;;5074973;28;20090;-89
2022/09/24 04:36:36;;;;;;;9.20;6.78;;;;;;;;;;5057303;28;20048;-89
2022/09/24 04:39:03;;;;;;;8.55;6.68;;;;;;;;;;5057425;28;20063;-88
2022/09/24 04:41:30;;;;;;;9.60;7.70;;;;;;;;;;5057237;28;20045;-89
2022/09/24 04:44:00;;;;;;;6.60;5.95;;;;;;;;;;5057662;28;20436;-89
2022/09/24 04:46:28;;;;;;;6.97;6.25;;;;;;;;;;5074911;28;20049;-90
2022/09/24 04:48:56;;;;;;;9.85;8.25;;;;;;;;;;5057269;28;20492;-89
2022/09/24 04:51:23;;;;;;;7.72;7.03;;;;;;;;;;5057178;28;20041;-89
2022/09/24 04:53:50;;;;;;;8.77;7.03;;;;;;;;;;5057418;28;20055;-89
2022/09/24 04:56:17;;;;;;;8.43;7.20;;;;;;;;;;5057245;28;20469;-89
2022/09/24 04:58:44;;;;;;;8.85;6.50;;;;;;;;;;5056818;28;20102;-89
2022/09/24 05:01:12;;;;;;;8.93;7.95;;;;;;;;;;5057109;28;20044;-89
2022/09/24 05:03:39;;;;;;;7.80;6.72;;;;;;;;;;5056881;28;20054;-89
2022/09/24 05:06:07;;;;;;;10.77;7.00;;;;;;;;;;5056922;28;20060;-89
2022/09/24 05:08:34;;;;;;;9.50;8.07;;;;;;;;;;5074327;28;20044;-89
2022/09/24 05:11:01;;;;;;;10.63;7.47;;;;;;;;;;5056868;28;20404;-89
2022/09/24 05:13:29;;;;;;;7.47;6.43;;;;;;;;;;5074294;28;20054;-89
2022/09/24 05:15:56;;;;;;;9.98;7.28;;;;;;;;;;5073338;28;20052;-89
2022/09/24 05:18:23;;;;;;;7.20;6.50;;;;;;;;;;5074138;28;20087;-88
2022/09/24 05:20:50;;;;;;;7.10;6.40;;;;;;;;;;5074318;28;20059;-89
2022/09/24 05:23:17;;;;;;;7.82;6.15;;;;;;;;;;5073690;28;20072;-89
2022/09/24 05:28:32;;;;;;;9.13;6.57;;;;;;;;;;5074131;28;20049;-89
2022/09/24 05:30:59;;;;;;;9.07;7.32;;;;;;;;;;5056427;28;20554;-89
2022/09/24 05:33:26;;;;;;;11.35;7.63;;;;;;;;;;5073964;28;20056;-89
2022/09/24 05:35:54;;;;;;;9.80;7.75;;;;;;;;;;5056357;28;20056;-89
2022/09/24 05:38:21;;;;;;;8.15;6.75;;;;;;;;;;5056253;28;20054;-89
2022/09/24 05:40:49;;;;;;;11.70;6.90;;;;;;;;;;5056141;28;20053;-90
2022/09/24 05:43:20;;;;;;;9.45;7.10;;;;;;;;;;5056420;28;20056;-89
2022/09/24 05:45:49;;;;;;;7.28;6.57;;;;;;;;;;5056064;28;20051;-89
2022/09/24 05:48:16;;;;;;;6.57;5.93;;;;;;;;;;5055965;28;20056;-89
2022/09/24 05:50:43;;;;;;;7.63;6.07;;;;;;;;;;5055834;28;20126;-89
2022/09/24 05:53:10;;;;;;;13.18;7.47;;;;;;;;;;5056188;28;20136;-89
2022/09/24 05:55:37;;;;;;;9.82;6.63;;;;;;;;;;5056190;28;20051;-89
2022/09/24 05:58:10;;;;;;;9.90;5.93;;;;;;;;;;5055941;28;20053;-89
2022/09/24 06:00:37;;;;;;;14.85;5.82;;;;;;;;;;5073643;28;20135;-89
2022/09/24 06:03:10;;;;;;;5.97;4.75;;;;;;;;;;5073497;28;20498;-89
2022/09/24 06:05:38;;;;;;;;;;;;;;;;;;5056205;28;20060;-89
2022/09/24 06:08:07;;;;;;;11.80;5.28;;;;;;;;;;5056261;28;19920;-89
2022/09/24 06:10:35;;;;;;;5.40;4.90;;;;;;;;;;5056161;28;20059;-89
2022/09/24 06:13:02;;;;;;;6.65;4.78;;;;;;;;;;5073598;28;20472;-90
2022/09/24 06:15:29;;;;;;;8.05;5.45;;;;;;;;;;5055710;28;20055;-90
2022/09/24 06:17:57;;;;;;;10.43;5.80;;;;;;;;;;5073592;28;20098;-89
2022/09/24 06:20:24;;;;;;;6.40;5.65;;;;;;;;;;5073593;28;20076;-90
2022/09/24 06:22:54;;;;;;;10.52;5.38;;;;;;;;;;5055747;28;20526;-89
2022/09/24 06:25:21;;;;;;;22.95;17.50;;;;;;;;;;5055911;28;20053;-90
2022/09/24 06:27:54;;;;;;;9.32;6.00;;;;;;;;;;5058218;28;20055;-90
2022/09/24 06:30:21;;;;;;;24.48;17.70;;;;;;;;;;5059884;28;20060;-90
2022/09/24 06:32:49;;;;;;;8.98;5.82;;;;;;;;;;5059772;28;20127;-90
2022/09/24 06:35:16;;;;;;;8.05;5.63;;;;;;;;;;5060074;28;20044;-90
2022/09/24 06:37:43;;;;;;;6.32;4.97;;;;;;;;;;5059639;28;20052;-90
2022/09/24 06:40:10;;;;;;;6.88;4.85;;;;;;;;;;5059699;28;20048;-90
2022/09/24 06:42:37;;;;;;;8.75;5.18;;;;;;;;;;5059802;28;20056;-90
2022/09/24 06:45:04;;;;;;;9.93;3.45;;;;;;;;;;5059774;28;20063;-89
2022/09/24 06:47:32;;;;;;;6.95;3.60;;;;;;;;;;5059398;28;20178;-89
2022/09/24 06:49:59;;;;;;;3.85;3.47;;;;;;;;;;5059545;28;20044;-89
2022/09/24 06:52:28;;;;;;;7.10;2.90;;;;;;;;;;5059620;28;20053;-89
2022/09/24 06:54:55;;;;;;;10.57;3.78;;;;;;;;;;5076888;28;20044;-89
2022/09/24 06:57:23;;;;;;;9.70;3.63;;;;;;;;;;5076963;28;20096;-89
2022/09/24 06:59:55;;;;;;;8.55;3.40;;;;;;;;;;5059957;28;20047;-89
2022/09/24 07:02:22;;;;;;;8.90;3.60;;;;;;;;;;5059187;28;20135;-89
2022/09/24 07:04:49;;;;;;;5.05;3.10;;;;;;;;;;5059191;28;20087;-89
2022/09/24 07:07:28;;;;;;;17.05;2.92;;;;;;;;;;5076877;28;20048;-90
2022/09/24 07:09:56;;;;;;;22.15;3.75;;;;;;;;;;5059506;28;20045;-91
2022/09/24 07:12:23;;;;;;;5.10;2.80;;;;;;;;;;5076505;28;20060;-91
2022/09/24 07:14:50;;;;;;;16.20;4.30;;;;;;;;;;5059125;28;20052;-92
2022/09/24 07:17:17;;;;;;;21.23;4.45;;;;;;;;;;5059016;28;20045;-91
2022/09/24 07:19:44;;;;;;;11.50;3.40;;;;;;;;;;5057959;28;20134;-91
2022/09/24 07:22:11;;;;;;;9.77;3.13;;;;;;;;;;5059150;28;20044;-91
2022/09/24 07:24:38;;;;;;;15.40;3.33;;;;;;;;;;5058391;28;20059;-92
2022/09/24 07:27:06;;;;;;;13.45;3.55;;;;;;;;;;5059035;28;20053;-93
2022/09/24 07:29:33;;;;;;;11.27;3.88;;;;;;;;;;5058954;28;20053;-90
2022/09/24 07:32:01;;;;;;;10.20;3.70;;;;;;;;;;5076471;28;20045;-92
2022/09/24 07:34:28;;;;;;;5.75;3.15;;;;;;;;;;5076249;28;20056;-90
2022/09/24 07:36:56;;;;;;;8.48;3.80;;;;;;;;;;5059002;28;20131;-91
2022/09/24 07:39:23;;;;;;;7.57;3.03;;;;;;;;;;5075119;28;20056;-90
2022/09/24 07:41:51;;;;;;;11.25;3.28;;;;;;;;;;5058580;28;20496;-90
2022/09/24 07:44:22;;;;;;;8.27;2.70;;;;;;;;;;5076058;28;20044;-90
2022/09/24 07:46:49;;;;;;;10.25;2.58;;;;;;;;;;5076362;28;20053;-89
2022/09/24 07:49:17;;;;;;;10.85;2.65;;;;;;;;;;5076052;28;20098;-87
2022/09/24 07:51:44;;;;;;;9.80;3.00;;;;;;;;;;5058733;28;20044;-91
2022/09/24 07:54:12;;;;;;;14.45;2.90;;;;;;;;;;5058527;28;20087;-90
2022/09/24 07:56:43;;;;;;;5.20;3.00;;;;;;;;;;5058990;28;20550;-89
2022/09/24 07:59:10;;;;;;;4.28;2.42;;;;;;;;;;5075948;28;20056;-90
2022/09/24 08:01:38;;;;;;;13.20;2.60;;;;;;;;;;5058228;28;20420;-92
2022/09/24 08:04:06;;;;;;;4.55;2.08;;;;;;;;;;5058334;28;20087;-92
2022/09/24 08:06:34;;;;;;;7.80;2.25;;;;;;;;;;5058396;28;20082;-92
2022/09/24 08:09:07;;;;;;;;;;;;;;;;;;5075999;28;20052;-91
2022/09/24 08:11:34;;;;;;;9.50;3.00;;;;;;;;;;5057400;28;19924;-92
2022/09/24 08:14:01;;;;;;;12.80;2.42;;;;;;;;;;5058297;28;20046;-91
2022/09/24 08:16:29;;;;;;;11.48;2.88;;;;;;;;;;5058048;28;20055;-91
2022/09/24 08:18:56;;;;;;;8.32;2.30;;;;;;;;;;5057584;28;20109;-91
2022/09/24 08:21:23;;;;;;;7.93;2.22;;;;;;;;;;5057952;28;20053;-91
2022/09/24 08:23:50;;;;;;;12.77;2.60;;;;;;;;;;5057844;28;20143;-91
2022/09/24 08:26:17;;;;;;;10.73;2.60;;;;;;;;;;5057453;28;20111;-91
2022/09/24 08:28:44;;;;;;;13.07;3.50;;;;;;;;;;5057621;28;20059;-93
2022/09/24 08:31:12;;;;;;;13.68;2.67;;;;;;;;;;5057664;28;20045;-92
2022/09/24 08:33:40;;;;;;;9.55;2.65;;;;;;;;;;5076613;28;20044;-92
2022/09/24 08:36:08;;;;;;;4.57;2.30;;;;;;;;;;5079746;28;20412;-92
2022/09/24 08:38:36;;;;;;;7.05;2.40;;;;;;;;;;5057750;28;20048;-92
2022/09/24 08:41:12;;;;;;;5.10;1.85;;;;;;;;;;5057445;28;20047;-92
2022/09/24 08:43:47;;;;;;;5.22;2.03;;;;;;;;;;5057424;28;20511;-91
2022/09/24 08:49:06;;;;;;;4.20;1.80;;;;;;;;;;5075028;28;20123;-91
2022/09/24 08:51:37;;;;;;;4.50;1.75;;;;;;;;;;5057357;28;20523;-93
2022/09/24 08:54:07;;;;;;;9.50;1.90;;;;;;;;;;5057415;28;20047;-92
2022/09/24 08:56:36;;;;;;;4.85;1.85;;;;;;;;;;5085979;28;20052;-93
2022/09/24 08:59:22;;;;;;;4.45;1.50;;;;;;;;;;5059120;28;20045;-92
2022/09/24 09:01:55;;;;;;;8.00;2.10;;;;;;;;;;5057183;28;20041;-91
2022/09/24 09:04:34;;;;;;;9.90;2.28;;;;;;;;;;5074450;28;20052;-92
2022/09/24 09:07:14;;;;;;;8.68;2.45;;;;;;;;;;5057208;28;20062;-92
2022/09/24 09:09:44;;;;;;;4.03;2.00;;;;;;;;;;5056917;28;20041;-93
2022/09/24 09:12:37;;;;;;;7.25;2.05;;;;;;;;;;5074378;28;20055;-91
2022/09/24 09:15:11;;;;;;;3.63;1.87;;;;;;;;;;5025308;28;20048;-95
2022/09/24 09:17:51;;;;;;;5.20;1.80;;;;;;;;;;5058984;28;20535;-94
2022/09/24 09:20:18;;;;;;;7.18;2.10;;;;;;;;;;5059478;28;20059;-94
2022/09/24 09:22:49;;;;;;;7.20;1.98;;;;;;;;;;5075624;28;20053;-92
2022/09/24 09:25:18;;;;;;;2.40;1.55;;;;;;;;;;5057280;28;20199;-91
2022/09/24 09:27:47;;;;;;;3.08;1.75;;;;;;;;;;5083274;28;20056;-95
2022/09/24 09:30:15;;;;;;;2.90;1.73;;;;;;;;;;5077447;28;20049;-90
2022/09/24 09:32:50;;;;;;;5.43;1.88;;;;;;;;;;5059084;28;20147;-93
2022/09/24 09:35:28;;;;;;;3.13;1.35;;;;;;;;;;5060423;28;20139;-94
2022/09/24 09:38:17;;;;;;;3.28;1.90;;;;;;;;;;5065804;28;20040;-92
2022/09/24 09:40:47;;;;;;;4.78;1.63;;;;;;;;;;5062201;28;20531;-96
2022/09/24 09:43:15;;;;;;;2.25;1.27;;;;;;;;;;5077046;28;20041;-91
2022/09/24 09:46:01;;;;;;;1.90;1.67;;;;;;;;;;5058799;28;20048;-92
2022/09/24 09:48:37;;;;;;;5.68;1.58;;;;;;;;;;5068100;28;20052;-95
2022/09/24 09:51:05;;;;;;;2.80;1.55;;;;;;;;;;5060897;28;20049;-93
2022/09/24 09:53:32;;;;;;;2.55;1.42;;;;;;;;;;5058507;28;20060;-94
2022/09/24 09:56:05;;;;;;;2.70;1.48;;;;;;;;;;5057670;28;20126;-90
2022/09/24 09:58:33;;;;;;;1.98;1.77;;;;;;;;;;5059830;28;20063;-95
2022/09/24 10:01:06;;;;;;;1.58;1.48;;;;;;;;;;5057469;28;20131;-93
2022/09/24 10:03:34;;;;;;;;;;;;;;;;;;5058231;28;20048;-96
2022/09/24 10:06:02;;;;;;;1.98;1.50;;;;;;;;;;5057913;28;19924;-92
2022/09/24 10:08:29;;;;;;;4.70;2.10;;;;;;;;;;5058330;28;20056;-93
2022/09/24 10:10:58;;;;;;;3.63;1.92;;;;;;;;;;5075396;28;20045;-92
2022/09/24 10:13:25;;;;;;;3.53;2.15;;;;;;;;;;5059412;28;20083;-92
2022/09/24 10:15:57;;;;;;;3.55;2.20;;;;;;;;;;5057379;28;20045;-94
2022/09/24 10:18:29;;;;;;;2.40;2.20;;;;;;;;;;5074880;28;20051;-93
2022/09/24 10:20:56;;;;;;;3.85;2.15;;;;;;;;;;5058370;28;20049;-94
2022/09/24 10:23:31;;;;;;;1.80;1.70;;;;;;;;;;5055958;28;20140;-93
2022/09/24 10:26:00;;;;;;;2.13;2.00;;;;;;;;;;5074021;28;20056;-90
2022/09/24 10:31:25;;;;;;;1.90;1.70;;;;;;;;;;5074620;28;20049;-91
2022/09/24 10:33:54;;;;;;;3.60;2.20;;;;;;;;;;5056196;28;20055;-89
2022/09/24 10:36:23;;;;;;;1.95;1.67;;;;;;;;;;5056085;28;20127;-93
2022/09/24 10:39:01;;;;;;;2.53;2.10;;;;;;;;;;5056382;28;20139;-93
2022/09/24 10:41:30;;;;;;;2.33;1.75;;;;;;;;;;5073985;28;20132;-90
2022/09/24 10:44:01;;;;;;;2.85;1.70;;;;;;;;;;5056093;28;20519;-92
2022/09/24 10:46:28;;;;;;;3.70;1.75;;;;;;;;;;5055963;28;20063;-90
2022/09/24 10:49:00;;;;;;;1.73;1.48;;;;;;;;;;5073321;28;20048;-90
2022/09/24 10:51:33;;;;;;;2.67;1.67;;;;;;;;;;5087214;28;20062;-90
2022/09/24 10:54:17;;;;;;;6.23;1.97;;;;;;;;;;5069763;28;20051;-91
2022/09/24 10:56:50;;;;;;;3.15;1.50;;;;;;;;;;5056468;28;20048;-90
2022/09/24 10:59:26;;;;;;;2.30;1.83;;;;;;;;;;5055730;28;20056;-91
2022/09/24 11:02:14;;;;;;;2.97;1.58;;;;;;;;;;5056411;28;20053;-92
2022/09/24 11:04:46;;;;;;;3.10;1.77;;;;;;;;;;5055774;28;20049;-90
2022/09/24 11:07:13;;;;;;;3.35;1.90;;;;;;;;;;5055695;28;20519;-88
2022/09/24 11:09:49;;;;;;;2.47;1.85;;;;;;;;;;5055495;28;20080;-91
2022/09/24 11:12:42;;;;;;;2.13;1.85;;;;;;;;;;5073033;28;20045;-93
2022/09/24 11:15:19;;;;;;;2.28;2.03;;;;;;;;;;5022661;28;20465;-91
2022/09/24 11:18:01;;;;;;;1.95;1.85;;;;;;;;;;5076527;28;20055;-89
2022/09/24 11:20:38;;;;;;;2.85;1.50;;;;;;;;;;5059343;28;20048;-89
2022/09/24 11:23:16;;;;;;;6.88;2.50;;;;;;;;;;5076768;28;20101;-93
2022/09/24 11:25:47;;;;;;;6.80;2.13;;;;;;;;;;5077534;28;20048;-91
2022/09/24 11:28:21;;;;;;;8.50;2.70;;;;;;;;;;5076345;28;20045;-92
2022/09/24 11:30:48;;;;;;;3.97;2.67;;;;;;;;;;5077568;28;20055;-93
2022/09/24 11:33:31;;;;;;;5.95;3.58;;;;;;;;;;5077380;28;20048;-89
2022/09/24 11:36:06;;;;;;;2.88;1.95;;;;;;;;;;5076767;28;20488;-90
2022/09/24 11:38:36;;;;;;;4.63;3.08;;;;;;;;;;5076604;28;20052;-93
2022/09/24 11:41:10;;;;;;;3.53;2.70;;;;;;;;;;5076831;28;20052;-94
2022/09/24 11:43:48;;;;;;;3.50;2.50;;;;;;;;;;5058708;28;20045;-91
2022/09/24 11:46:35;;;;;;;2.70;2.50;;;;;;;;;;5058753;28;20048;-91
2022/09/24 11:49:02;;;;;;;3.10;2.50;;;;;;;;;;5058399;28;20051;-91
2022/09/24 11:51:32;;;;;;;4.78;2.50;;;;;;;;;;5058307;28;20044;-91
2022/09/24 11:54:03;;;;;;;2.67;2.42;;;;;;;;;;5058480;28;20052;-91
2022/09/24 11:56:38;;;;;;;4.43;2.35;;;;;;;;;;5058412;28;20052;-91
2022/09/24 11:59:29;;;;;;;2.90;1.95;;;;;;;;;;5058150;28;20522;-92
2022/09/24 12:01:59;;;;;;;3.30;2.35;;;;;;;;;;5058161;28;20059;-91
2022/09/24 12:04:27;;;;;;;2.83;2.63;;;;;;;;;;5058296;28;20527;-91
2022/09/24 12:06:57;;;;;;;4.40;2.30;;;;;;;;;;5076068;28;20053;-90
2022/09/24 12:09:32;;;;;;;2.45;2.17;;;;;;;;;;5075715;28;20044;-93
2022/09/24 12:12:11;;;;;;;7.68;5.65;;;;;;;;;;5058176;28;20052;-91
2022/09/24 12:14:38;;;;;;;6.10;3.80;;;;;;;;;;5058342;28;20303;-91
2022/09/24 12:17:06;;;;;;;5.60;3.08;;;;;;;;;;5058103;28;20045;-91
2022/09/24 12:19:38;;;;;;;6.45;2.88;;;;;;;;;;5058191;28;20497;-92
2022/09/24 12:22:05;;;;;;;2.90;2.30;;;;;;;;;;5075561;28;20424;-91
2022/09/24 12:24:34;;;;;;;4.20;2.20;;;;;;;;;;5074423;28;20061;-91
2022/09/24 12:27:10;;;;;;;3.85;2.38;;;;;;;;;;5075430;28;20428;-90
2022/09/24 12:32:53;;;;;;;10.13;3.60;;;;;;;;;;5075277;28;20466;-91
2022/09/24 12:35:23;;;;;;;2.45;2.35;;;;;;;;;;5075227;28;20059;-91
2022/09/24 12:37:52;;;;;;;2.80;2.25;;;;;;;;;;5057779;28;20053;-93
2022/09/24 12:40:26;;;;;;;6.40;2.50;;;;;;;;;;5058447;28;20052;-90
2022/09/24 12:42:55;;;;;;;3.25;2.25;;;;;;;;;;5057896;28;20098;-93
2022/09/24 12:45:23;;;;;;;10.90;3.35;;;;;;;;;;5057864;28;20052;-91
2022/09/24 12:47:54;;;;;;;4.43;2.58;;;;;;;;;;5057581;28;20056;-94
2022/09/24 12:50:23;;;;;;;2.85;1.85;;;;;;;;;;5057419;28;20053;-89
2022/09/24 12:52:50;;;;;;;4.15;2.22;;;;;;;;;;5075125;28;20052;-89
2022/09/24 12:55:28;;;;;;;2.30;2.10;;;;;;;;;;5074892;28;20048;-90
2022/09/24 12:58:04;;;;;;;2.83;2.50;;;;;;;;;;5057057;28;20044;-92
2022/09/24 13:00:32;;;;;;;4.05;2.10;;;;;;;;;;5057114;28;20048;-90
2022/09/24 13:02:59;;;;;;;3.60;2.17;;;;;;;;;;5074579;28;20044;-93
2022/09/24 13:05:29;;;;;;;3.38;3.08;;;;;;;;;;5056976;28;20052;-92
2022/09/24 13:08:24;;;;;;;4.93;2.40;;;;;;;;;;5056824;28;20411;-92
2022/09/24 13:10:55;;;;;;;2.35;2.05;;;;;;;;;;5057061;28;20078;-92
2022/09/24 13:13:24;;;;;;;3.22;2.42;;;;;;;;;;5057151;28;20378;-92
2022/09/24 13:16:00;;;;;;;3.72;2.92;;;;;;;;;;5057105;28;20053;-93
2022/09/24 13:18:27;;;;;;;4.28;2.50;;;;;;;;;;5056696;28;20053;-91
2022/09/24 13:21:18;;;;;;;4.88;2.47;;;;;;;;;;5057591;28;20056;-92
2022/09/24 13:23:46;;;;;;;6.60;4.68;;;;;;;;;;5045717;28;20443;-93
2022/09/24 13:26:20;;;;;;;5.28;2.17;;;;;;;;;;5056961;28;20131;-91
2022/09/24 13:28:49;;;;;;;4.75;2.58;;;;;;;;;;5057546;28;20052;-92
2022/09/24 13:31:29;;;;;;;3.28;2.80;;;;;;;;;;5056752;28;20056;-93
2022/09/24 13:34:02;;;;;;;3.15;2.28;;;;;;;;;;5056848;28;20053;-92
2022/09/24 13:36:32;;;;;;;2.92;2.20;;;;;;;;;;5056083;28;20055;-89
2022/09/24 13:39:21;;;;;;;4.30;3.90;;;;;;;;;;5074374;28;20041;-93
2022/09/24 13:41:53;;;;;;;10.95;9.75;;;;;;;;;;5056659;28;20056;-92
2022/09/24 13:44:23;;;;;;;5.10;4.03;;;;;;;;;;5073701;28;20052;-91
2022/09/24 13:46:58;;;;;;;4.15;3.33;;;;;;;;;;5056313;28;20484;-92
2022/09/24 13:49:26;;;;;;;6.68;2.58;;;;;;;;;;5056393;28;20040;-93
2022/09/24 13:52:13;;;;;;;14.15;4.00;;;;;;;;;;5073631;28;20484;-93
2022/09/24 13:54:47;;;;;;;3.45;2.05;;;;;;;;;;5039943;28;20045;-91
2022/09/24 13:57:19;;;;;;;4.57;2.20;;;;;;;;;;5073698;28;20048;-92
2022/09/24 13:59:47;;;;;;;3.13;2.38;;;;;;;;;;5073685;28;20055;-91
2022/09/24 14:02:22;;;;;;;2.83;2.08;;;;;;;;;;5055942;28;20048;-90
2022/09/24 14:04:53;;;;;;;1.92;1.63;;;;;;;;;;5056299;28;20049;-91
2022/09/24 14:07:21;;;;;;;1.98;1.80;;;;;;;;;;5073686;28;20078;-92
2022/09/24 14:09:50;;;;;;;2.60;2.15;;;;;;;;;;5055907;28;20497;-91
2022/09/24 14:12:21;;;;;;;1.60;1.50;;;;;;;;;;5073482;28;20051;-91
2022/09/24 14:14:52;;;;;;;23.80;3.13;;;;;;;;;;5073280;28;20135;-90
2022/09/24 14:17:20;;;;;;;10.32;2.10;;;;;;;;;;5073279;28;20045;-90
2022/09/24 14:19:47;;;;;;;4.75;1.83;;;;;;;;;;5073475;28;20060;-91
2022/09/24 14:22:21;;;;;;;4.68;2.97;;;;;;;;;;5055821;28;20052;-91
2022/09/24 14:24:48;;;;;;;3.83;1.80;;;;;;;;;;5073230;28;20071;-91
2022/09/24 14:27:18;;;;;;;3.50;2.83;;;;;;;;;;5072313;28;20405;-90
2022/09/24 14:29:49;;;;;;;4.40;2.22;;;;;;;;;;5073809;28;20048;-91
2022/09/24 14:32:24;;;;;;;6.65;2.30;;;;;;;;;;5074895;28;20048;-94
2022/09/24 14:34:53;;;;;;;4.90;1.88;;;;;;;;;;5057174;28;20131;-93
2022/09/24 14:37:24;;;;;;;2.00;1.70;;;;;;;;;;5055448;28;20049;-91
2022/09/24 14:39:57;;;;;;;4.03;3.10;;;;;;;;;;5055444;28;20071;-92
2022/09/24 14:42:26;;;;;;;5.28;1.83;;;;;;;;;;5073185;28;20048;-92
2022/09/24 14:44:54;;;;;;;2.75;2.20;;;;;;;;;;5055773;28;20064;-92
2022/09/24 14:47:24;;;;;;;2.13;1.70;;;;;;;;;;5073465;28;20051;-92
2022/09/24 14:49:51;;;;;;;4.45;2.30;;;;;;;;;;5059569;28;20055;-92
2022/09/24 14:52:29;;;;;;;2.22;1.88;;;;;;;;;;5059471;28;20382;-91
2022/09/24 14:55:23;;;;;;;2.00;1.90;;;;;;;;;;5077170;28;20053;-91
2022/09/24 14:57:50;;;;;;;2.08;1.67;;;;;;;;;;5055518;28;20052;-91
2022/09/24 15:00:24;;;;;;;2.42;1.48;;;;;;;;;;5076875;28;20460;-91
2022/09/24 15:02:58;;;;;;;3.03;1.60;;;;;;;;;;5059300;28;20102;-91
2022/09/24 15:05:25;;;;;;;;;;;;;;;;;;5059622;28;20044;-91
2022/09/24 15:08:10;;;;;;;10.35;9.02;;;;;;;;;;5076978;28;20280;-91
2022/09/24 15:10:38;;;;;;;5.00;2.70;;;;;;;;;;5059503;28;20053;-91
2022/09/24 15:13:13;;;;;;;3.13;2.00;;;;;;;;;;5059244;28;20045;-91
2022/09/24 15:15:40;;;;;;;2.30;1.83;;;;;;;;;;5058995;28;20067;-90
2022/09/24 15:18:11;;;;;;;3.47;2.00;;;;;;;;;;5076786;28;20197;-91